Time;durP1;ratioP1;P1;durP2;ratioP2;P2;SDS_P1;SDS_P2;PMS_P1;PMS_P2;Temp;Humidity;BMP_temperature;BMP_pressure;BME280_temperature;BME280_humidity;BME280_pressure;Samples;Min_cycle;Max_cycle;Signal;HPM_P1;HPM_P2
2024/04/03 00:00:53;;;;;;;9.60;4.32;;;11.20;94.70;;;;;;5058405;28;20032;-78
2024/04/03 00:03:19;;;;;;;10.02;3.50;;;11.20;94.70;;;;;;5055113;28;20036;-75
2024/04/03 00:05:44;;;;;;;12.43;3.10;;;11.20;94.50;;;;;;5062526;28;20275;-80
2024/04/03 00:08:10;;;;;;;14.00;3.67;;;11.20;94.50;;;;;;5055491;28;20059;-76
2024/04/03 00:10:36;;;;;;;14.25;3.83;;;11.20;94.40;;;;;;5062798;28;20032;-77
2024/04/03 00:13:02;;;;;;;10.27;3.30;;;11.20;94.30;;;;;;5054643;28;20532;-79
2024/04/03 00:15:27;;;;;;;8.10;3.15;;;11.20;94.20;;;;;;5062828;28;20162;-76
2024/04/03 00:17:54;;;;;;;12.90;2.90;;;11.10;94.00;;;;;;5057079;28;20123;-78
2024/04/03 00:20:21;;;;;;;8.75;2.80;;;11.20;93.90;;;;;;5059285;28;20025;-79
2024/04/03 00:22:47;;;;;;;9.48;2.80;;;11.20;93.70;;;;;;5045887;28;20036;-77
2024/04/03 00:25:13;;;;;;;7.90;2.97;;;11.20;93.50;;;;;;5060792;28;20074;-77
2024/04/03 00:27:39;;;;;;;8.02;2.63;;;11.10;93.40;;;;;;5043422;28;20040;-81
2024/04/03 00:30:05;;;;;;;8.50;3.00;;;11.20;93.30;;;;;;5063145;28;20127;-78
2024/04/03 00:32:31;;;;;;;8.23;2.67;;;11.20;93.30;;;;;;5060320;28;20119;-83
2024/04/03 00:34:56;;;;;;;10.05;2.60;;;11.20;93.00;;;;;;5062103;28;20107;-83
2024/04/03 00:37:22;;;;;;;7.55;2.78;;;11.10;93.10;;;;;;5046081;28;20609;-76
2024/04/03 00:39:55;;;;;;;8.27;2.53;;;11.10;93.10;;;;;;5064839;28;20091;-76
2024/04/03 00:42:21;;;;;;;7.78;2.35;;;11.20;93.00;;;;;;5062972;28;20131;-83
2024/04/03 00:44:48;;;;;;;8.13;2.50;;;11.10;93.00;;;;;;5063491;28;20611;-79
2024/04/03 00:47:17;;;;;;;6.38;2.80;;;11.10;93.00;;;;;;5045180;28;20039;-83
2024/04/03 00:49:49;;;;;;;6.28;2.40;;;11.10;93.00;;;;;;5044242;28;20024;-80
2024/04/03 00:52:17;;;;;;;7.90;2.78;;;11.10;93.10;;;;;;5052911;28;20102;-79
2024/04/03 00:54:47;;;;;;;7.00;2.75;;;11.10;93.20;;;;;;5052880;28;20582;-77
2024/04/03 00:57:13;;;;;;;6.32;2.70;;;11.10;93.20;;;;;;5058272;28;20107;-79
2024/04/03 00:59:42;;;;;;;8.02;2.55;;;11.10;93.20;;;;;;5058347;28;20116;-76
2024/04/03 01:02:09;;;;;;;9.80;2.70;;;11.10;93.30;;;;;;5058498;28;20024;-80
2024/04/03 01:04:35;;;;;;;8.63;2.40;;;11.10;93.40;;;;;;5063744;28;20023;-81
2024/04/03 01:07:06;;;;;;;9.38;2.67;;;11.00;93.50;;;;;;5056400;28;20725;-76
2024/04/03 01:09:32;;;;;;;10.70;2.85;;;11.00;93.60;;;;;;5054088;28;20131;-75
2024/04/03 01:11:58;;;;;;;8.00;2.78;;;11.00;93.70;;;;;;5049374;28;20477;-84
2024/04/03 01:14:24;;;;;;;6.93;2.40;;;11.00;93.80;;;;;;5051355;28;20157;-78
2024/04/03 01:16:50;;;;;;;6.68;2.30;;;10.90;93.90;;;;;;5055338;28;20037;-79
2024/04/03 01:19:15;;;;;;;9.02;2.88;;;10.90;94.00;;;;;;5038077;28;20029;-77
2024/04/03 01:21:41;;;;;;;8.02;2.70;;;10.90;94.00;;;;;;5063553;28;20666;-78
2024/04/03 01:24:07;;;;;;;8.43;2.60;;;10.90;94.10;;;;;;5061069;28;20382;-80
2024/04/03 01:26:32;;;;;;;7.20;2.67;;;10.90;94.20;;;;;;5060678;28;20036;-77
2024/04/03 01:28:58;;;;;;;8.68;2.45;;;10.90;94.30;;;;;;5060724;28;20622;-77
2024/04/03 01:31:24;;;;;;;7.45;3.05;;;10.80;94.40;;;;;;5062519;28;20119;-82
2024/04/03 01:33:50;;;;;;;8.65;3.35;;;10.80;94.50;;;;;;5043441;28;20793;-76
2024/04/03 01:36:18;;;;;;;7.63;3.15;;;10.80;94.70;;;;;;5061488;28;20033;-76
2024/04/03 01:38:45;;;;;;;8.27;3.10;;;10.80;94.80;;;;;;5050414;28;20140;-79
2024/04/03 01:41:11;;;;;;;9.55;3.30;;;10.80;94.80;;;;;;5061017;28;20025;-75
2024/04/03 01:43:37;;;;;;;7.18;2.83;;;10.80;94.90;;;;;;5059550;28;20054;-77
2024/04/03 01:46:03;;;;;;;11.73;3.65;;;10.80;95.00;;;;;;5058470;28;20433;-78
2024/04/03 01:48:29;;;;;;;10.35;3.33;;;10.80;95.10;;;;;;5060535;28;20024;-79
2024/04/03 01:50:54;;;;;;;11.13;3.33;;;10.70;95.10;;;;;;5062333;28;20392;-79
2024/04/03 01:53:20;;;;;;;11.10;4.30;;;10.70;95.30;;;;;;5052309;28;20045;-77
2024/04/03 01:55:53;;;;;;;10.40;3.20;;;10.70;95.40;;;;;;5065496;28;20070;-76
2024/04/03 01:58:19;;;;;;;13.00;3.78;;;10.80;95.40;;;;;;5051598;28;20064;-80
2024/04/03 02:00:47;;;;;;;11.48;3.72;;;10.70;95.40;;;;;;5054854;28;20067;-77
2024/04/03 02:03:12;;;;;;;11.00;3.40;;;10.70;95.40;;;;;;5061560;28;20036;-74
2024/04/03 02:05:38;;;;;;;9.35;3.75;;;10.80;95.50;;;;;;5062570;28;20016;-78
2024/04/03 02:08:04;;;;;;;10.15;4.00;;;10.80;95.40;;;;;;5045655;28;20041;-75
2024/04/03 02:10:30;;;;;;;12.73;4.55;;;10.80;95.50;;;;;;5059418;28;20040;-76
2024/04/03 02:12:56;;;;;;;9.85;3.65;;;10.80;95.50;;;;;;5044475;28;20051;-79
2024/04/03 02:15:22;;;;;;;13.10;4.20;;;10.80;95.50;;;;;;5059408;28;20012;-77
2024/04/03 02:17:47;;;;;;;17.30;4.55;;;10.80;95.60;;;;;;5057882;28;20094;-76
2024/04/03 02:20:13;;;;;;;14.25;4.20;;;10.80;95.60;;;;;;5057981;28;20056;-79
2024/04/03 02:22:39;;;;;;;11.63;4.07;;;10.80;95.60;;;;;;5053617;28;20060;-76
2024/04/03 02:25:05;;;;;;;14.43;4.50;;;10.80;95.70;;;;;;5055854;28;20048;-81
2024/04/03 02:27:30;;;;;;;10.00;3.67;;;10.80;95.60;;;;;;5057751;28;20404;-78
2024/04/03 02:29:56;;;;;;;12.70;4.38;;;10.80;95.60;;;;;;5060210;28;20020;-74
2024/04/03 02:32:22;;;;;;;13.18;4.35;;;10.80;95.70;;;;;;5061079;28;20056;-80
2024/04/03 02:34:48;;;;;;;12.05;4.20;;;10.80;95.80;;;;;;5055511;28;20021;-74
2024/04/03 02:37:13;;;;;;;14.27;4.28;;;10.80;95.70;;;;;;5054546;28;20573;-77
2024/04/03 02:39:39;;;;;;;8.90;3.92;;;10.80;95.70;;;;;;5060919;28;20150;-75
2024/04/03 02:42:05;;;;;;;11.57;4.18;;;10.80;95.80;;;;;;5036191;28;20090;-74
2024/04/03 02:44:30;;;;;;;12.57;4.25;;;10.80;95.80;;;;;;5059781;28;20464;-80
2024/04/03 02:46:56;;;;;;;11.23;3.90;;;10.80;95.80;;;;;;5058903;28;20598;-78
2024/04/03 02:49:22;;;;;;;11.15;4.40;;;10.80;95.90;;;;;;5043650;28;20450;-78
2024/04/03 02:51:48;;;;;;;13.27;5.05;;;10.70;95.90;;;;;;5052153;28;20029;-80
2024/04/03 02:54:13;;;;;;;10.63;4.05;;;10.70;95.90;;;;;;5056061;28;20028;-80
2024/04/03 02:56:39;;;;;;;11.23;4.07;;;10.70;95.90;;;;;;5050680;28;20028;-75
2024/04/03 02:59:05;;;;;;;12.25;5.00;;;10.70;95.90;;;;;;5053017;28;20421;-77
2024/04/03 03:01:30;;;;;;;14.80;4.18;;;10.70;96.00;;;;;;5055675;28;20698;-77
2024/04/03 03:03:57;;;;;;;10.80;5.05;;;10.70;96.00;;;;;;5061365;28;20443;-79
2024/04/03 03:06:22;;;;;;;14.82;5.60;;;10.70;95.90;;;;;;5046728;28;20738;-74
2024/04/03 03:08:49;;;;;;;10.98;4.68;;;10.70;96.00;;;;;;5059646;28;20139;-78
2024/04/03 03:11:14;;;;;;;12.82;4.45;;;10.70;95.90;;;;;;5060096;28;20032;-80
2024/04/03 03:13:40;;;;;;;9.57;4.05;;;10.70;95.80;;;;;;5057339;28;20051;-76
2024/04/03 03:16:06;;;;;;;12.95;4.43;;;10.70;95.90;;;;;;5050441;28;20041;-80
2024/04/03 03:18:34;;;;;;;13.63;4.07;;;10.70;95.90;;;;;;5059497;28;20086;-75
2024/04/03 03:21:00;;;;;;;10.60;3.92;;;10.70;95.80;;;;;;5059104;28;20112;-74
2024/04/03 03:23:26;;;;;;;10.18;3.90;;;10.60;95.90;;;;;;5061184;28;20108;-77
2024/04/03 03:25:52;;;;;;;10.07;4.38;;;10.70;95.90;;;;;;5053419;28;20044;-78
2024/04/03 03:28:22;;;;;;;9.73;3.85;;;10.70;95.90;;;;;;5041651;28;20035;-79
2024/04/03 03:30:49;;;;;;;11.80;4.38;;;10.70;95.90;;;;;;5059805;28;20045;-76
2024/04/03 03:33:16;;;;;;;12.65;4.20;;;10.70;96.00;;;;;;5052250;28;20734;-76
2024/04/03 03:35:42;;;;;;;10.70;4.05;;;10.70;96.00;;;;;;5060389;28;20025;-75
2024/04/03 03:38:08;;;;;;;15.10;4.95;;;10.70;96.00;;;;;;5062217;28;20415;-79
2024/04/03 03:40:37;;;;;;;15.77;5.57;;;10.70;95.90;;;;;;5061726;28;20024;-79
2024/04/03 03:43:02;;;;;;;12.75;5.03;;;10.70;95.80;;;;;;5064195;28;20588;-77
2024/04/03 03:45:28;;;;;;;11.27;4.32;;;10.70;95.90;;;;;;5061683;28;20029;-77
2024/04/03 03:47:54;;;;;;;13.60;4.55;;;10.70;95.90;;;;;;5060808;28;20037;-77
2024/04/03 03:53:03;;;;;;;11.43;4.87;;;10.70;95.90;;;;;;5062316;28;20067;-75
2024/04/03 03:55:30;;;;;;;14.18;4.90;;;10.70;95.80;;;;;;5064149;28;20016;-79
2024/04/03 03:57:56;;;;;;;13.65;4.53;;;10.70;95.80;;;;;;5060673;28;20377;-78
2024/04/03 04:00:23;;;;;;;8.80;3.88;;;10.70;95.70;;;;;;5056935;28;20013;-76
2024/04/03 04:02:50;;;;;;;12.48;4.13;;;10.70;95.70;;;;;;5064320;28;20036;-82
2024/04/03 04:05:17;;;;;;;8.35;3.55;;;10.70;95.70;;;;;;5059434;28;20404;-78
2024/04/03 04:07:44;;;;;;;10.75;3.90;;;10.70;95.70;;;;;;5057227;28;20037;-74
2024/04/03 04:10:09;;;;;;;13.30;4.28;;;10.70;95.60;;;;;;5063001;28;20169;-80
2024/04/03 04:12:35;;;;;;;9.90;3.90;;;10.70;95.50;;;;;;5067844;28;20210;-74
2024/04/03 04:15:01;;;;;;;9.70;3.60;;;10.70;95.50;;;;;;5062402;28;20047;-77
2024/04/03 04:17:28;;;;;;;13.75;4.43;;;10.70;95.50;;;;;;5068629;28;20036;-76
2024/04/03 04:19:54;;;;;;;10.45;4.22;;;10.80;95.50;;;;;;5063786;28;20020;-77
2024/04/03 04:22:19;;;;;;;11.20;4.63;;;10.70;95.50;;;;;;5058857;28;20197;-80
2024/04/03 04:24:45;;;;;;;9.20;3.70;;;10.70;95.50;;;;;;5068684;28;20082;-74
2024/04/03 04:27:12;;;;;;;7.03;3.47;;;10.70;95.50;;;;;;5058392;28;20349;-75
2024/04/03 04:29:42;;;;;;;9.30;3.40;;;10.70;95.40;;;;;;5064483;28;20035;-81
2024/04/03 04:32:08;;;;;;;8.45;3.65;;;10.80;95.50;;;;;;5082999;28;20036;-78
2024/04/03 04:34:38;;;;;;;9.00;3.08;;;10.70;95.50;;;;;;5077711;28;20024;-81
2024/04/03 04:37:03;;;;;;;9.02;3.55;;;10.70;95.50;;;;;;5079150;28;20523;-79
2024/04/03 04:39:30;;;;;;;8.48;2.88;;;10.70;95.50;;;;;;5075441;28;20029;-82
2024/04/03 04:41:55;;;;;;;9.10;2.92;;;10.70;95.50;;;;;;5078491;28;20036;-83
2024/04/03 04:44:21;;;;;;;7.53;3.35;;;10.70;95.50;;;;;;5064188;28;20027;-81
2024/04/03 04:46:48;;;;;;;7.18;3.92;;;10.70;95.60;;;;;;5074331;28;20036;-78
2024/04/03 04:49:15;;;;;;;8.13;3.08;;;10.70;95.60;;;;;;5065445;28;20726;-75
2024/04/03 04:51:41;;;;;;;7.15;3.28;;;10.70;95.70;;;;;;5058833;28;20072;-80
2024/04/03 04:54:06;;;;;;;9.00;2.97;;;10.60;95.70;;;;;;5063687;28;20025;-76
2024/04/03 04:56:32;;;;;;;7.18;3.17;;;10.60;95.70;;;;;;5072479;28;20464;-82
2024/04/03 04:58:57;;;;;;;7.50;3.25;;;10.70;95.80;;;;;;5069336;28;20040;-84
2024/04/03 05:01:23;;;;;;;8.20;3.33;;;10.60;95.80;;;;;;5068876;28;20017;-80
2024/04/03 05:03:49;;;;;;;7.25;3.40;;;10.60;95.90;;;;;;5064739;28;20036;-78
2024/04/03 05:06:18;;;;;;;8.18;3.90;;;10.70;95.90;;;;;;5064221;28;20040;-80
2024/04/03 05:08:45;;;;;;;8.82;3.75;;;10.70;95.90;;;;;;5067649;28;20032;-78
2024/04/03 05:11:11;;;;;;;6.55;3.30;;;10.60;95.90;;;;;;5059785;28;20581;-82
2024/04/03 05:13:37;;;;;;;7.68;3.35;;;10.70;95.90;;;;;;5069681;28;20778;-77
2024/04/03 05:16:11;;;;;;;7.90;3.38;;;10.60;95.90;;;;;;5065100;28;20060;-77
2024/04/03 05:18:37;;;;;;;8.07;3.75;;;10.60;96.00;;;;;;5067169;28;20032;-76
2024/04/03 05:21:03;;;;;;;9.98;4.22;;;10.60;96.00;;;;;;5048297;28;20029;-80
2024/04/03 05:23:29;;;;;;;8.73;3.83;;;10.60;96.00;;;;;;5062697;28;20097;-78
2024/04/03 05:25:59;;;;;;;9.20;4.07;;;10.60;96.00;;;;;;5065190;28;20041;-84
2024/04/03 05:28:31;;;;;;;8.35;4.00;;;10.70;96.00;;;;;;5069751;28;20016;-76
2024/04/03 05:31:06;;;;;;;7.82;4.13;;;10.70;95.90;;;;;;5065204;28;20044;-76
2024/04/03 05:33:33;;;;;;;7.35;3.83;;;10.70;96.00;;;;;;5060573;28;20105;-74
2024/04/03 05:36:00;;;;;;;7.75;4.18;;;10.70;96.00;;;;;;5057989;28;20055;-76
2024/04/03 05:38:27;;;;;;;8.13;4.25;;;10.70;96.10;;;;;;5040152;28;20055;-81
2024/04/03 05:40:53;;;;;;;7.40;4.15;;;10.70;96.20;;;;;;5057786;28;20109;-80
2024/04/03 05:43:19;;;;;;;7.53;4.00;;;10.70;96.10;;;;;;5050158;28;20033;-74
2024/04/03 05:45:46;;;;;;;8.60;4.53;;;10.70;96.10;;;;;;5060359;28;20038;-74
2024/04/03 05:48:12;;;;;;;9.32;4.20;;;10.70;96.10;;;;;;5059056;28;20044;-83
2024/04/03 05:50:38;;;;;;;6.55;3.60;;;10.70;96.20;;;;;;5056481;28;20039;-81
2024/04/03 05:53:04;;;;;;;8.30;4.25;;;10.70;96.20;;;;;;5058875;28;20029;-76
2024/04/03 05:55:30;;;;;;;9.77;4.75;;;10.80;96.10;;;;;;5058039;28;20024;-74
2024/04/03 05:57:55;;;;;;;7.70;4.57;;;10.80;96.10;;;;;;5054851;28;20079;-83
2024/04/03 06:00:22;;;;;;;7.00;4.38;;;10.70;96.10;;;;;;5057006;28;20028;-75
2024/04/03 06:02:48;;;;;;;9.65;4.60;;;10.80;96.20;;;;;;5055760;28;20410;-74
2024/04/03 06:05:14;;;;;;;9.50;4.85;;;10.80;96.10;;;;;;5059533;28;20162;-80
2024/04/03 06:07:40;;;;;;;9.00;5.65;;;10.80;96.20;;;;;;5056909;28;20485;-75
2024/04/03 06:10:06;;;;;;;9.13;5.03;;;10.90;96.10;;;;;;5056002;28;20934;-82
2024/04/03 06:12:32;;;;;;;7.97;4.82;;;10.80;96.10;;;;;;5065968;28;20029;-77
2024/04/03 06:14:58;;;;;;;8.40;4.63;;;10.80;96.10;;;;;;5056936;28;20017;-76
2024/04/03 06:17:24;;;;;;;6.97;4.68;;;10.80;96.10;;;;;;5057264;28;20033;-81
2024/04/03 06:19:50;;;;;;;8.48;4.97;;;10.80;96.10;;;;;;5054206;28;20629;-75
2024/04/03 06:22:15;;;;;;;6.57;4.63;;;10.90;96.20;;;;;;5065071;28;20049;-78
2024/04/03 06:24:42;;;;;;;8.13;5.10;;;10.90;96.20;;;;;;5052596;28;20083;-74
2024/04/03 06:27:08;;;;;;;8.35;4.72;;;10.90;96.20;;;;;;5068896;28;20043;-78
2024/04/03 06:29:34;;;;;;;9.82;5.45;;;10.90;96.30;;;;;;5062889;28;20029;-85
2024/04/03 06:32:01;;;;;;;8.85;4.93;;;10.90;96.20;;;;;;5061628;28;20093;-77
2024/04/03 06:34:27;;;;;;;7.90;4.82;;;10.90;96.40;;;;;;5060718;28;20016;-77
2024/04/03 06:36:52;;;;;;;7.68;5.00;;;10.90;96.40;;;;;;5057945;28;20051;-85
2024/04/03 06:39:19;;;;;;;8.57;5.30;;;10.90;96.40;;;;;;5051152;28;20698;-81
2024/04/03 06:41:44;;;;;;;7.70;5.47;;;10.90;96.40;;;;;;5041623;28;20449;-77
2024/04/03 06:44:10;;;;;;;6.53;4.75;;;10.90;96.60;;;;;;5057907;28;20051;-81
2024/04/03 06:46:36;;;;;;;9.93;5.72;;;10.90;96.70;;;;;;5057020;28;20127;-77
2024/04/03 06:49:02;;;;;;;8.57;5.25;;;10.90;96.70;;;;;;5058100;28;20082;-80
2024/04/03 06:51:28;;;;;;;7.88;5.35;;;10.90;96.70;;;;;;5064218;28;20028;-77
2024/04/03 06:53:54;;;;;;;7.63;5.05;;;11.00;96.70;;;;;;5058523;28;20037;-78
2024/04/03 06:56:19;;;;;;;7.10;4.80;;;11.10;96.70;;;;;;5055603;28;20032;-79
2024/04/03 06:58:45;;;;;;;8.50;5.25;;;11.10;96.70;;;;;;5056810;28;20687;-77
2024/04/03 07:01:12;;;;;;;6.53;4.32;;;11.10;96.80;;;;;;5055018;28;20044;-81
2024/04/03 07:03:39;;;;;;;7.57;4.38;;;11.10;96.70;;;;;;5039570;28;20062;-75
2024/04/03 07:06:08;;;;;;;6.57;4.57;;;11.10;96.70;;;;;;5058918;28;20045;-75
2024/04/03 07:08:34;;;;;;;6.53;4.40;;;11.20;96.60;;;;;;5042181;28;20646;-76
2024/04/03 07:11:04;;;;;;;7.20;4.75;;;11.10;96.50;;;;;;5061111;28;20052;-84
2024/04/03 07:13:29;;;;;;;5.50;3.80;;;11.10;96.60;;;;;;5069592;28;20063;-78
2024/04/03 07:15:55;;;;;;;5.90;4.07;;;11.10;96.50;;;;;;5061071;28;20694;-82
2024/04/03 07:18:21;;;;;;;7.05;4.05;;;11.10;96.60;;;;;;5043635;28;20036;-78
2024/04/03 07:20:57;;;;;;;6.70;4.10;;;11.10;96.60;;;;;;5062294;28;20919;-74
2024/04/03 07:23:26;;;;;;;5.88;3.92;;;11.10;96.70;;;;;;5059452;28;20029;-78
2024/04/03 07:25:58;;;;;;;6.47;3.80;;;11.10;96.80;;;;;;5060215;28;20041;-76
2024/04/03 07:28:26;;;;;;;6.88;3.88;;;11.20;96.70;;;;;;5060322;28;20055;-79
2024/04/03 07:30:53;;;;;;;6.93;4.22;;;11.20;96.70;;;;;;5060034;28;20041;-80
2024/04/03 07:33:18;;;;;;;8.00;4.03;;;11.20;96.70;;;;;;5054861;28;20041;-78
2024/04/03 07:35:44;;;;;;;7.38;4.18;;;11.20;96.70;;;;;;5054153;28;20051;-81
2024/04/03 07:38:10;;;;;;;5.32;3.72;;;11.20;96.70;;;;;;5060103;28;20037;-80
2024/04/03 07:40:36;;;;;;;6.00;3.60;;;11.20;96.70;;;;;;5061723;28;20117;-76
2024/04/03 07:43:03;;;;;;;6.10;3.80;;;11.20;96.70;;;;;;5062431;28;20029;-77
2024/04/03 07:45:29;;;;;;;5.93;3.88;;;11.20;96.70;;;;;;5059095;28;20025;-81
2024/04/03 07:47:54;;;;;;;6.45;3.88;;;11.30;96.70;;;;;;5054271;28;20072;-76
2024/04/03 07:50:20;;;;;;;6.35;4.45;;;11.20;96.70;;;;;;5056716;28;20047;-78
2024/04/03 07:52:46;;;;;;;5.75;3.88;;;11.30;96.80;;;;;;5051416;28;20043;-75
2024/04/03 07:55:13;;;;;;;5.90;3.75;;;11.30;96.80;;;;;;5058081;28;20021;-76
2024/04/03 07:57:39;;;;;;;5.32;3.78;;;11.30;96.90;;;;;;5054367;28;20086;-76
2024/04/03 08:00:08;;;;;;;6.53;4.32;;;11.40;96.90;;;;;;5054849;28;20024;-75
2024/04/03 08:02:42;;;;;;;6.32;3.80;;;11.40;96.70;;;;;;5056464;28;20032;-77
2024/04/03 08:05:09;;;;;;;5.63;3.88;;;11.40;96.70;;;;;;5059753;28;20028;-77
2024/04/03 08:07:35;;;;;;;6.53;4.30;;;11.40;96.70;;;;;;5056777;28;20656;-76
2024/04/03 08:10:05;;;;;;;5.82;4.10;;;11.40;96.70;;;;;;5058877;28;20373;-76
2024/04/03 08:12:30;;;;;;;7.00;4.70;;;11.40;96.80;;;;;;5055394;28;20041;-77
2024/04/03 08:14:58;;;;;;;6.88;4.90;;;11.40;96.80;;;;;;5059383;28;20074;-74
2024/04/03 08:17:24;;;;;;;6.47;4.95;;;11.50;96.90;;;;;;5055413;28;20032;-74
2024/04/03 08:19:51;;;;;;;6.95;5.07;;;11.60;96.80;;;;;;5058410;28;20534;-75
2024/04/03 08:22:17;;;;;;;7.15;4.93;;;11.60;96.70;;;;;;5057930;28;20044;-76
2024/04/03 08:24:43;;;;;;;6.55;5.32;;;11.60;96.70;;;;;;5057091;28;20396;-76
2024/04/03 08:27:10;;;;;;;7.90;5.30;;;11.70;96.60;;;;;;5062330;28;20652;-76
2024/04/03 08:29:39;;;;;;;7.65;5.40;;;11.80;96.70;;;;;;5059862;28;20020;-75
2024/04/03 08:32:06;;;;;;;6.50;5.10;;;11.80;96.60;;;;;;5057119;28;20054;-76
2024/04/03 08:34:32;;;;;;;7.65;5.38;;;11.80;96.50;;;;;;5059208;28;20117;-77
2024/04/03 08:36:59;;;;;;;7.22;5.32;;;11.90;96.50;;;;;;5053993;28;20515;-76
2024/04/03 08:39:24;;;;;;;6.97;4.95;;;11.80;96.50;;;;;;5050398;28;20460;-78
2024/04/03 08:41:56;;;;;;;6.88;4.90;;;11.90;96.50;;;;;;5058640;28;20044;-77
2024/04/03 08:44:22;;;;;;;5.93;4.70;;;11.90;96.40;;;;;;5059038;28;20116;-77
2024/04/03 08:46:49;;;;;;;6.85;4.78;;;12.00;96.30;;;;;;5050097;28;20044;-77
2024/04/03 08:49:18;;;;;;;8.27;4.50;;;12.10;96.40;;;;;;5055812;28;20048;-76
2024/04/03 08:51:52;;;;;;;6.25;4.70;;;12.10;96.20;;;;;;5051868;28;20063;-79
2024/04/03 08:54:19;;;;;;;;;;;12.20;96.00;;;;;;5057249;28;20021;-77
2024/04/03 08:56:44;;;;;;;7.65;4.35;;;12.30;95.80;;;;;;5056082;28;19912;-78
2024/04/03 08:59:11;;;;;;;6.47;4.22;;;12.30;95.70;;;;;;5057718;28;20021;-75
2024/04/03 09:01:37;;;;;;;5.50;3.92;;;12.40;95.60;;;;;;5053968;28;20032;-76
2024/04/03 09:04:03;;;;;;;5.72;3.75;;;12.40;95.50;;;;;;5056597;28;21007;-78
2024/04/03 09:06:40;;;;;;;6.00;3.78;;;12.40;95.40;;;;;;5057744;28;20657;-75
2024/04/03 09:09:05;;;;;;;7.43;4.82;;;12.40;95.40;;;;;;5056459;28;20040;-75
2024/04/03 09:11:31;;;;;;;7.10;3.85;;;12.40;95.40;;;;;;5062967;28;20404;-76
2024/04/03 09:13:57;;;;;;;6.93;4.22;;;12.40;95.40;;;;;;5058450;28;20033;-74
2024/04/03 09:16:22;;;;;;;13.13;4.90;;;12.40;95.40;;;;;;5057846;28;20033;-75
2024/04/03 09:19:01;;;;;;;5.05;3.67;;;12.30;95.40;;;;;;5056305;28;20047;-75
2024/04/03 09:21:27;;;;;;;5.45;3.92;;;12.40;95.40;;;;;;5057197;28;20055;-76
2024/04/03 09:23:53;;;;;;;6.40;4.10;;;12.40;95.30;;;;;;5056208;28;20024;-76
2024/04/03 09:26:18;;;;;;;6.45;4.07;;;12.50;95.20;;;;;;5053588;28;20091;-75
2024/04/03 09:28:44;;;;;;;6.80;4.05;;;12.60;94.90;;;;;;5058907;28;20232;-76
2024/04/03 09:31:10;;;;;;;6.10;4.07;;;12.70;95.00;;;;;;5056735;28;20565;-76
2024/04/03 09:33:36;;;;;;;6.13;3.75;;;12.80;94.60;;;;;;5045365;28;20481;-75
2024/04/03 09:36:05;;;;;;;6.95;3.55;;;13.10;94.60;;;;;;5057717;28;20036;-75
2024/04/03 09:38:32;;;;;;;6.80;4.00;;;13.30;94.30;;;;;;5055737;28;20519;-75
2024/04/03 09:41:02;;;;;;;5.28;3.40;;;13.40;94.00;;;;;;5052995;28;20525;-76
2024/04/03 09:43:33;;;;;;;5.63;3.33;;;13.70;93.70;;;;;;5056889;28;20036;-77
2024/04/03 09:46:06;;;;;;;5.22;3.13;;;14.10;93.40;;;;;;5051556;28;20029;-77
2024/04/03 09:48:34;;;;;;;6.82;3.05;;;14.40;92.30;;;;;;5053476;28;20647;-74
2024/04/03 09:51:00;;;;;;;7.45;2.83;;;14.50;91.20;;;;;;5049159;28;20926;-75
2024/04/03 09:53:27;;;;;;;5.75;3.03;;;14.60;91.00;;;;;;5059634;28;20032;-77
2024/04/03 09:55:53;;;;;;;6.13;2.65;;;14.60;90.80;;;;;;5035384;28;20108;-77
2024/04/03 09:58:21;;;;;;;5.40;2.90;;;14.80;90.30;;;;;;5054712;28;20478;-77
2024/04/03 10:00:54;;;;;;;4.90;3.00;;;14.80;89.90;;;;;;5057971;28;20021;-77
2024/04/03 10:03:26;;;;;;;5.63;2.85;;;15.00;89.60;;;;;;5049545;28;20060;-75
2024/04/03 10:06:09;;;;;;;5.80;2.85;;;15.10;89.10;;;;;;5053610;28;20064;-79
2024/04/03 10:08:43;;;;;;;5.00;2.58;;;15.10;88.80;;;;;;5057412;28;20761;-75
2024/04/03 10:11:27;;;;;;;5.93;2.72;;;15.10;88.80;;;;;;5058705;28;20029;-74
2024/04/03 10:13:52;;;;;;;4.88;2.70;;;15.00;88.60;;;;;;5057280;28;20024;-79
2024/04/03 10:16:18;;;;;;;6.13;2.63;;;15.00;88.50;;;;;;5057076;28;20036;-81
2024/04/03 10:18:52;;;;;;;6.15;2.92;;;15.10;88.20;;;;;;5056419;28;20051;-76
2024/04/03 10:21:20;;;;;;;4.83;2.67;;;15.10;88.40;;;;;;5057956;28;20068;-77
2024/04/03 10:23:48;;;;;;;7.28;2.60;;;15.30;89.10;;;;;;5057381;28;20111;-76
2024/04/03 10:26:15;;;;;;;4.80;2.90;;;15.30;88.10;;;;;;5056924;28;20053;-76
2024/04/03 10:28:42;;;;;;;5.97;2.50;;;15.50;88.30;;;;;;5059141;28;20435;-73
2024/04/03 10:31:09;;;;;;;8.65;3.65;;;15.70;87.70;;;;;;5055133;28;20465;-74
2024/04/03 10:33:34;;;;;;;5.40;2.20;;;16.00;87.40;;;;;;5053609;28;20102;-72
2024/04/03 10:36:00;;;;;;;8.13;2.88;;;16.20;86.00;;;;;;5053790;28;20020;-71
2024/04/03 10:38:26;;;;;;;5.10;2.05;;;16.20;85.40;;;;;;5053348;28;20532;-73
2024/04/03 10:40:51;;;;;;;5.50;2.05;;;16.30;84.90;;;;;;5049995;28;20037;-75
2024/04/03 10:43:19;;;;;;;5.43;2.22;;;16.10;84.60;;;;;;5045934;28;20033;-72
2024/04/03 10:45:52;;;;;;;6.68;2.20;;;16.00;84.60;;;;;;5041123;28;20040;-73
2024/04/03 10:48:19;;;;;;;6.28;2.28;;;15.80;85.20;;;;;;5042564;28;20123;-75
2024/04/03 10:50:46;;;;;;;6.68;2.13;;;15.90;85.70;;;;;;5051339;28;20516;-74
2024/04/03 10:53:13;;;;;;;5.55;1.90;;;16.10;85.00;;;;;;5050574;28;20579;-74
2024/04/03 10:55:39;;;;;;;7.40;2.67;;;16.10;84.40;;;;;;5034450;28;20589;-74
2024/04/03 10:58:07;;;;;;;7.88;1.92;;;16.10;84.50;;;;;;5052278;28;20067;-73
2024/04/03 11:00:40;;;;;;;9.32;2.95;;;16.50;84.20;;;;;;5045361;28;20021;-72
2024/04/03 11:03:07;;;;;;;5.43;2.10;;;16.50;83.20;;;;;;5044695;28;20389;-73
2024/04/03 11:05:34;;;;;;;5.82;2.42;;;16.70;83.10;;;;;;5044216;28;20044;-74
2024/04/03 11:08:01;;;;;;;6.53;1.85;;;16.50;82.60;;;;;;5044074;28;20041;-72
2024/04/03 11:10:27;;;;;;;5.70;2.08;;;16.50;83.20;;;;;;5040357;28;20029;-76
2024/04/03 11:13:26;;;;;;;3.83;1.83;;;16.40;82.60;;;;;;5047699;28;20036;-72
2024/04/03 11:15:52;;;;;;;6.55;1.92;;;16.40;82.90;;;;;;4988410;28;20028;-73
2024/04/03 11:18:18;;;;;;;8.85;2.22;;;16.40;82.40;;;;;;5042448;28;20036;-72
2024/04/03 11:20:44;;;;;;;6.72;1.80;;;16.50;82.90;;;;;;5054110;28;20043;-72
2024/04/03 11:23:10;;;;;;;5.00;2.10;;;16.80;82.90;;;;;;5053620;28;20031;-72
2024/04/03 11:25:35;;;;;;;4.95;1.80;;;17.20;83.10;;;;;;5043993;28;20040;-72
2024/04/03 11:28:03;;;;;;;6.03;2.10;;;17.30;81.10;;;;;;5045344;28;20136;-74
2024/04/03 11:30:29;;;;;;;4.28;1.85;;;17.30;80.80;;;;;;5052638;28;20183;-74
2024/04/03 11:32:55;;;;;;;4.93;2.20;;;17.00;80.70;;;;;;5062918;28;20047;-75
2024/04/03 11:35:22;;;;;;;5.40;1.77;;;16.80;81.40;;;;;;5050781;28;20373;-73
2024/04/03 11:37:47;;;;;;;7.97;2.50;;;16.60;82.90;;;;;;5056328;28;20032;-75
2024/04/03 11:40:14;;;;;;;5.97;2.40;;;16.50;84.80;;;;;;5056087;28;20024;-75
2024/04/03 11:42:40;;;;;;;6.20;2.53;;;16.50;85.80;;;;;;5044091;28;20496;-73
2024/04/03 11:45:06;;;;;;;6.72;2.55;;;16.40;85.60;;;;;;5064683;28;20029;-73
2024/04/03 11:47:35;;;;;;;7.82;2.85;;;16.10;86.60;;;;;;5057804;28;20036;-74
2024/04/03 11:50:02;;;;;;;11.35;4.85;;;16.00;87.60;;;;;;5056186;28;20400;-74
2024/04/03 11:52:27;;;;;;;8.43;3.40;;;16.10;87.60;;;;;;5055812;28;20036;-73
2024/04/03 11:54:55;;;;;;;8.05;2.08;;;15.70;87.10;;;;;;5057811;28;20101;-72
2024/04/03 11:57:21;;;;;;;7.57;2.40;;;15.50;88.30;;;;;;5058109;28;20028;-74
2024/04/03 11:59:47;;;;;;;4.68;2.20;;;15.20;89.20;;;;;;5060294;28;20376;-74
2024/04/03 12:02:13;;;;;;;6.50;2.42;;;15.00;89.80;;;;;;5059092;28;20021;-75
2024/04/03 12:04:40;;;;;;;5.38;2.08;;;15.00;91.00;;;;;;5057967;28;20531;-76
2024/04/03 12:07:06;;;;;;;7.95;2.70;;;15.00;91.70;;;;;;5057513;28;20056;-76
2024/04/03 12:09:31;;;;;;;8.90;2.80;;;15.00;91.40;;;;;;5057895;28;20415;-77
2024/04/03 12:11:57;;;;;;;10.77;3.63;;;15.20;92.00;;;;;;5056377;28;20536;-76
2024/04/03 12:14:23;;;;;;;9.02;2.80;;;15.50;91.70;;;;;;5061444;28;20034;-77
2024/04/03 12:16:52;;;;;;;6.13;2.35;;;15.60;91.60;;;;;;5057304;28;20098;-75
2024/04/03 12:19:33;;;;;;;6.05;2.58;;;15.90;90.90;;;;;;5056885;28;20035;-75
2024/04/03 12:21:59;;;;;;;6.30;2.17;;;15.80;90.70;;;;;;5056264;28;20036;-74
2024/04/03 12:24:25;;;;;;;5.25;2.30;;;15.80;90.10;;;;;;5056820;28;20509;-76
2024/04/03 12:26:51;;;;;;;6.15;2.10;;;15.90;90.40;;;;;;5054313;28;20040;-75
2024/04/03 12:29:16;;;;;;;6.30;2.30;;;15.90;90.30;;;;;;5055749;28;20021;-74
2024/04/03 12:31:45;;;;;;;7.28;2.30;;;15.90;89.70;;;;;;5057297;28;20043;-76
2024/04/03 12:34:11;;;;;;;6.53;2.42;;;15.70;89.70;;;;;;5056935;28;20036;-74
2024/04/03 12:36:37;;;;;;;8.05;3.08;;;15.80;90.20;;;;;;5059018;28;20035;-72
2024/04/03 12:39:08;;;;;;;7.38;2.67;;;15.60;90.20;;;;;;5059093;28;20028;-74
2024/04/03 12:41:35;;;;;;;6.40;2.80;;;15.40;90.60;;;;;;5047897;28;20604;-75
2024/04/03 12:44:01;;;;;;;4.72;2.30;;;15.10;91.20;;;;;;5057762;28;20040;-73
2024/04/03 12:46:27;;;;;;;5.78;2.60;;;15.10;91.80;;;;;;5058213;28;20047;-74